createdAt,value
2019-01-30T00:00:44.764Z,1.40
2019-01-30T00:03:02.465Z,1.30
2019-01-30T00:05:29.893Z,1.30
2019-01-30T00:07:47.802Z,1.03
2019-01-30T00:10:02.779Z,2.63
2019-01-30T00:12:48.468Z,2.10
2019-01-30T00:22:55.599Z,2.20
2019-01-30T00:32:33.856Z,5.10
2019-01-30T00:37:58.603Z,1.20
2019-01-30T00:40:28.152Z,2.53
2019-01-30T00:50:53.400Z,5.77
2019-01-30T00:53:09.155Z,8.03
2019-01-30T00:55:24.196Z,1.87
2019-01-30T00:57:43.059Z,7.07
2019-01-30T01:04:51.395Z,3.00
2019-01-30T01:07:12.920Z,2.40
2019-01-30T01:09:37.666Z,5.77
2019-01-30T01:20:00.209Z,3.37
2019-01-30T01:23:57.404Z,1.10
2019-01-30T01:43:08.768Z,2.60
2019-01-30T02:42:49.024Z,2.07
2019-01-30T02:45:00.893Z,1.50
2019-01-30T03:24:49.852Z,2.00
2019-01-30T03:27:05.416Z,0.87
2019-01-30T03:41:44.219Z,0.57
2019-01-30T03:46:36.737Z,0.40
2019-01-30T03:48:51.950Z,0.97
2019-01-30T03:53:30.799Z,0.40
2019-01-30T03:55:54.673Z,0.37
2019-01-30T04:00:38.081Z,0.63
2019-01-30T04:02:52.012Z,0.60
2019-01-30T04:05:02.559Z,0.50
2019-01-30T04:07:13.420Z,2.40
2019-01-30T04:09:25.616Z,0.60
2019-01-30T04:11:44.042Z,0.43
2019-01-30T04:13:54.939Z,0.40
2019-01-30T04:16:05.493Z,1.50
2019-01-30T04:20:44.792Z,0.50
2019-01-30T04:22:56.604Z,0.37
2019-01-30T04:25:04.578Z,0.40
2019-01-30T04:27:11.768Z,0.60
2019-01-30T04:29:20.539Z,0.90
2019-01-30T04:31:37.832Z,0.73
2019-01-30T04:33:43.512Z,0.37
2019-01-30T04:35:52.756Z,1.20
2019-01-30T04:38:07.080Z,0.53
2019-01-30T04:40:19.981Z,1.33
2019-01-30T04:42:27.897Z,1.03
2019-01-30T04:44:35.672Z,0.20
2019-01-30T04:46:44.770Z,0.50
2019-01-30T04:48:53.147Z,0.30
2019-01-30T04:51:02.666Z,0.40
2019-01-30T04:53:09.968Z,0.40
2019-01-30T04:55:28.228Z,0.73
2019-01-30T04:57:43.632Z,0.60
2019-01-30T04:59:53.755Z,0.50
2019-01-30T05:02:03.666Z,1.07
2019-01-30T05:04:13.474Z,0.30
2019-01-30T05:06:21.284Z,0.63
2019-01-30T05:08:29.457Z,0.43
2019-01-30T05:10:38.738Z,0.40
2019-01-30T05:12:49.484Z,0.30
2019-01-30T05:14:57.354Z,0.63
2019-01-30T05:19:34.314Z,0.30
2019-01-30T05:21:48.930Z,0.60
2019-01-30T05:23:59.440Z,0.87
2019-01-30T05:26:14.150Z,0.50
2019-01-30T05:28:22.302Z,0.40
2019-01-30T05:30:33.665Z,0.50
2019-01-30T05:32:41.184Z,0.40
2019-01-30T05:34:59.799Z,0.50
2019-01-30T05:37:07.237Z,0.93
2019-01-30T05:39:21.611Z,0.30
2019-01-30T05:41:29.144Z,1.57
2019-01-30T05:43:42.462Z,7.00
2019-01-30T05:45:48.493Z,0.50
2019-01-30T05:47:55.911Z,1.47
2019-01-30T05:50:03.748Z,1.83
2019-01-30T05:52:16.275Z,0.30
2019-01-30T05:54:24.349Z,0.20
2019-01-30T05:56:32.179Z,0.30
2019-01-30T05:58:44.067Z,0.50
2019-01-30T06:00:54.384Z,3.50
2019-01-30T06:03:04.427Z,0.50
2019-01-30T06:05:15.447Z,0.33
2019-01-30T06:07:24.155Z,0.30
2019-01-30T06:09:31.422Z,0.93
2019-01-30T06:11:39.814Z,0.20
2019-01-30T06:13:49.119Z,1.00
2019-01-30T06:16:03.478Z,0.40
2019-01-30T06:18:11.290Z,0.70
2019-01-30T06:20:22.677Z,0.63
2019-01-30T06:22:31.127Z,0.60
2019-01-30T06:24:42.144Z,0.40
2019-01-30T06:26:51.745Z,0.30
2019-01-30T06:29:00.174Z,0.30
2019-01-30T06:31:09.683Z,0.30
2019-01-30T06:33:17.361Z,0.30
2019-01-30T06:35:25.640Z,0.50
2019-01-30T06:37:35.094Z,0.90
2019-01-30T06:39:42.893Z,0.40
2019-01-30T06:41:51.374Z,1.57
2019-01-30T06:44:02.738Z,0.87
2019-01-30T06:46:11.099Z,1.03
2019-01-30T06:48:18.301Z,0.37
2019-01-30T06:50:25.847Z,0.87
2019-01-30T06:52:34.099Z,0.50
2019-01-30T06:54:42.649Z,0.20
2019-01-30T06:56:51.840Z,0.30
2019-01-30T06:59:00.585Z,0.40
2019-01-30T07:01:11.343Z,0.30
2019-01-30T07:03:23.028Z,0.30
2019-01-30T07:05:36.156Z,0.40
2019-01-30T07:07:43.762Z,0.47
2019-01-30T07:09:52.087Z,0.30
2019-01-30T07:11:59.546Z,0.30
2019-01-30T07:14:07.385Z,0.47
2019-01-30T07:16:15.237Z,0.20
2019-01-30T07:18:23.500Z,0.30
2019-01-30T07:20:31.475Z,0.30
2019-01-30T07:22:40.060Z,0.90
2019-01-30T07:24:47.821Z,2.00
2019-01-30T07:26:55.776Z,0.93
2019-01-30T07:29:03.355Z,0.23
2019-01-30T07:31:10.383Z,0.50
2019-01-30T07:33:19.658Z,0.47
2019-01-30T07:35:27.132Z,1.17
2019-01-30T07:37:34.585Z,0.53
2019-01-30T07:39:41.746Z,0.73
2019-01-30T07:41:49.323Z,0.60
2019-01-30T07:43:56.903Z,0.40
2019-01-30T07:46:04.109Z,0.30
2019-01-30T07:48:11.832Z,1.57
2019-01-30T07:50:19.184Z,0.77
2019-01-30T07:52:27.085Z,0.47
2019-01-30T07:54:34.779Z,0.60
2019-01-30T07:56:42.163Z,0.30
2019-01-30T07:58:50.218Z,0.73
2019-01-30T08:00:58.934Z,0.67
2019-01-30T08:03:06.284Z,0.83
2019-01-30T08:05:13.617Z,0.77
2019-01-30T08:07:21.731Z,0.50
2019-01-30T08:09:29.236Z,0.33
2019-01-30T08:11:36.738Z,0.40
2019-01-30T08:13:43.800Z,0.40
2019-01-30T08:15:51.329Z,1.60
2019-01-30T08:17:59.075Z,1.07
2019-01-30T08:20:07.306Z,2.40
2019-01-30T08:22:14.770Z,0.30
2019-01-30T08:24:22.212Z,0.50
2019-01-30T08:26:31.660Z,1.30
2019-01-30T08:28:40.308Z,0.30
2019-01-30T08:30:47.871Z,0.30
2019-01-30T08:33:04.087Z,1.03
2019-01-30T08:35:04.176Z,0.37
2019-01-30T08:37:11.585Z,1.40
2019-01-30T08:39:18.873Z,2.23
2019-01-30T08:41:26.237Z,0.37
2019-01-30T08:43:33.765Z,0.50
2019-01-30T08:45:41.030Z,0.40
2019-01-30T08:47:48.391Z,0.57
2019-01-30T08:49:55.840Z,0.30
2019-01-30T08:52:03.223Z,0.30
2019-01-30T08:54:10.865Z,1.07
2019-01-30T08:56:18.221Z,0.83
2019-01-30T08:58:25.646Z,0.87
2019-01-30T09:00:33.237Z,0.43
2019-01-30T09:02:40.551Z,0.67
2019-01-30T09:04:48.619Z,0.20
2019-01-30T09:06:55.782Z,0.40
2019-01-30T09:09:04.987Z,0.43
2019-01-30T09:11:12.445Z,0.43
2019-01-30T09:13:19.740Z,0.53
2019-01-30T09:15:27.921Z,0.40
2019-01-30T09:17:35.281Z,0.67
2019-01-30T09:19:42.380Z,0.40
2019-01-30T09:21:49.726Z,0.30
2019-01-30T09:23:58.448Z,0.40
2019-01-30T09:26:06.323Z,0.40
2019-01-30T09:28:13.618Z,0.80
2019-01-30T09:30:35.513Z,0.30
2019-01-30T09:32:43.070Z,0.50
2019-01-30T09:34:50.321Z,0.27
2019-01-30T09:36:57.711Z,0.47
2019-01-30T09:39:07.098Z,0.33
2019-01-30T09:41:14.530Z,0.50
2019-01-30T09:43:21.640Z,0.80
2019-01-30T09:45:29.235Z,0.50
2019-01-30T09:47:36.640Z,0.30
2019-01-30T09:49:43.681Z,1.03
2019-01-30T09:51:51.115Z,0.50
2019-01-30T09:53:58.151Z,1.07
2019-01-30T09:56:05.218Z,0.40
2019-01-30T09:58:12.350Z,0.40
2019-01-30T10:00:22.682Z,0.33
2019-01-30T10:02:29.917Z,0.27
2019-01-30T10:04:37.299Z,0.60
2019-01-30T10:06:44.403Z,0.33
2019-01-30T10:08:52.323Z,0.70
2019-01-30T10:10:59.502Z,0.63
2019-01-30T10:13:07.294Z,0.67
2019-01-30T10:15:15.568Z,0.63
2019-01-30T10:17:22.769Z,0.40
2019-01-30T10:19:30.129Z,1.57
2019-01-30T10:21:37.458Z,0.30
2019-01-30T10:23:44.888Z,0.73
2019-01-30T10:25:52.024Z,0.50
2019-01-30T10:27:59.184Z,0.50
2019-01-30T10:30:07.176Z,1.13
2019-01-30T10:32:15.079Z,0.70
2019-01-30T10:34:22.498Z,0.27
2019-01-30T10:36:30.527Z,0.30
2019-01-30T10:38:37.831Z,0.70
2019-01-30T10:40:44.921Z,0.40
2019-01-30T10:42:53.548Z,0.57
2019-01-30T10:45:00.840Z,0.43
2019-01-30T10:47:08.167Z,0.33
2019-01-30T10:49:15.377Z,0.23
2019-01-30T10:51:22.575Z,0.43
2019-01-30T10:53:30.222Z,0.30
2019-01-30T10:55:38.190Z,0.97
2019-01-30T10:57:46.373Z,1.27
2019-01-30T10:59:54.009Z,0.90
2019-01-30T11:02:01.599Z,0.27
2019-01-30T11:04:09.008Z,0.57
2019-01-30T11:06:16.886Z,0.50
2019-01-30T11:08:24.071Z,0.43
2019-01-30T11:10:31.308Z,0.90
2019-01-30T11:12:39.120Z,1.07
2019-01-30T11:14:46.131Z,0.60
2019-01-30T11:16:53.228Z,0.50
2019-01-30T11:19:00.519Z,0.57
2019-01-30T11:21:08.042Z,0.40
2019-01-30T11:23:15.483Z,0.67
2019-01-30T11:25:28.721Z,0.30
2019-01-30T11:27:35.933Z,0.30
2019-01-30T11:29:43.140Z,0.40
2019-01-30T11:31:50.507Z,0.40
2019-01-30T11:34:07.061Z,0.30
2019-01-30T11:36:06.961Z,0.57
2019-01-30T11:38:14.455Z,0.40
2019-01-30T11:40:22.317Z,0.30
2019-01-30T11:42:29.798Z,0.90
2019-01-30T11:44:37.328Z,0.30
2019-01-30T11:46:44.675Z,0.40
2019-01-30T11:48:56.406Z,0.67
2019-01-30T11:51:01.055Z,2.53
2019-01-30T11:53:08.484Z,0.40
2019-01-30T11:55:16.419Z,0.40
2019-01-30T11:57:23.657Z,0.53
2019-01-30T11:59:30.608Z,0.40
2019-01-30T12:01:37.941Z,0.60
2019-01-30T12:03:45.240Z,0.53
2019-01-30T12:05:52.572Z,0.50
2019-01-30T12:08:00.583Z,0.43
2019-01-30T12:10:08.330Z,0.43
2019-01-30T12:12:15.868Z,0.57
2019-01-30T12:14:23.482Z,0.30
2019-01-30T12:16:30.817Z,0.50
2019-01-30T12:18:38.096Z,0.30
2019-01-30T12:20:45.557Z,0.27
2019-01-30T12:22:52.982Z,0.30
2019-01-30T12:25:00.008Z,0.40
2019-01-30T12:27:07.346Z,0.20
2019-01-30T12:29:14.713Z,0.40
2019-01-30T12:31:21.807Z,0.30
2019-01-30T12:33:29.214Z,0.40
2019-01-30T12:35:36.582Z,0.30
2019-01-30T12:37:44.661Z,0.30
2019-01-30T12:39:52.813Z,0.50
2019-01-30T12:42:00.202Z,0.63
2019-01-30T12:44:08.988Z,0.50
2019-01-30T12:46:16.185Z,0.70
2019-01-30T12:48:23.658Z,0.60
2019-01-30T12:50:31.258Z,0.57
2019-01-30T12:52:38.803Z,0.93
2019-01-30T12:54:45.858Z,0.47
2019-01-30T12:56:53.737Z,0.30
2019-01-30T12:59:01.451Z,0.30
2019-01-30T13:01:08.667Z,0.40
2019-01-30T13:03:16.501Z,0.20
2019-01-30T13:05:24.953Z,0.30
2019-01-30T13:07:32.867Z,0.50
2019-01-30T13:09:40.106Z,0.30
2019-01-30T13:11:47.663Z,0.30
2019-01-30T13:13:55.158Z,0.70
2019-01-30T13:16:02.222Z,0.30
2019-01-30T13:18:18.025Z,0.60
2019-01-30T13:20:20.456Z,0.40
2019-01-30T13:22:27.650Z,0.40
2019-01-30T13:24:35.042Z,0.50
2019-01-30T13:26:42.862Z,0.87
2019-01-30T13:28:50.104Z,0.40
2019-01-30T13:30:57.231Z,0.30
2019-01-30T13:33:05.018Z,0.30
2019-01-30T13:35:12.592Z,0.20
2019-01-30T13:37:19.720Z,0.73
2019-01-30T13:39:27.470Z,0.70
2019-01-30T13:41:35.903Z,0.50
2019-01-30T13:43:44.851Z,0.53
2019-01-30T13:45:52.043Z,1.37
2019-01-30T13:47:59.708Z,0.30
2019-01-30T13:50:09.556Z,0.50
2019-01-30T13:52:17.521Z,0.40
2019-01-30T13:54:25.114Z,0.53
2019-01-30T13:56:33.377Z,0.40
2019-01-30T13:58:42.723Z,0.30
2019-01-30T14:00:51.221Z,0.43
2019-01-30T14:02:58.607Z,0.40
2019-01-30T14:05:06.205Z,0.30
2019-01-30T14:07:14.335Z,0.77
2019-01-30T14:09:21.739Z,0.40
2019-01-30T14:11:29.314Z,0.30
2019-01-30T14:13:36.725Z,0.30
2019-01-30T14:15:44.105Z,0.43
2019-01-30T14:17:51.956Z,0.20
2019-01-30T14:19:59.352Z,0.30
2019-01-30T14:22:07.931Z,0.57
2019-01-30T14:24:16.360Z,0.47
2019-01-30T14:26:25.110Z,1.30
2019-01-30T14:28:33.303Z,0.87
2019-01-30T14:30:41.880Z,0.30
2019-01-30T14:32:49.591Z,0.37
2019-01-30T14:34:58.015Z,1.50
2019-01-30T14:37:07.000Z,2.17
2019-01-30T14:39:15.990Z,0.93
2019-01-30T14:41:24.518Z,0.60
2019-01-30T14:43:33.587Z,0.30
2019-01-30T14:45:40.683Z,0.30
2019-01-30T14:47:48.332Z,0.60
2019-01-30T14:49:56.105Z,0.20
2019-01-30T14:52:04.019Z,2.10
2019-01-30T14:54:11.159Z,0.50
2019-01-30T14:56:20.131Z,0.60
2019-01-30T14:58:27.849Z,1.17
2019-01-30T15:00:35.926Z,2.67
2019-01-30T15:02:43.031Z,0.60
2019-01-30T15:04:50.392Z,1.17
2019-01-30T15:06:58.222Z,0.40
2019-01-30T15:09:07.332Z,0.40
2019-01-30T15:11:15.107Z,1.00
2019-01-30T15:13:22.936Z,0.43
2019-01-30T15:15:31.592Z,0.73
2019-01-30T15:17:39.462Z,1.00
2019-01-30T15:19:47.043Z,0.57
2019-01-30T15:21:56.870Z,1.70
2019-01-30T15:24:04.330Z,2.83
2019-01-30T15:26:11.679Z,0.67
2019-01-30T15:28:19.904Z,0.77
2019-01-30T15:30:32.607Z,0.77
2019-01-30T15:32:40.462Z,1.07
2019-01-30T15:34:47.785Z,0.40
2019-01-30T15:36:56.575Z,0.50
2019-01-30T15:39:05.477Z,1.37
2019-01-30T15:41:13.323Z,0.63
2019-01-30T15:43:21.157Z,1.17
2019-01-30T15:45:29.053Z,0.87
2019-01-30T15:47:37.131Z,0.93
2019-01-30T15:49:44.890Z,1.30
2019-01-30T15:51:52.813Z,2.57
2019-01-30T15:54:01.316Z,0.40
2019-01-30T15:56:09.628Z,0.47
2019-01-30T15:58:17.044Z,1.27
2019-01-30T16:00:29.390Z,0.50
2019-01-30T16:02:37.543Z,1.50
2019-01-30T16:04:44.869Z,3.53
2019-01-30T16:06:53.122Z,0.63
2019-01-30T16:09:01.114Z,1.90
2019-01-30T16:11:09.076Z,0.70
2019-01-30T16:13:17.048Z,1.80
2019-01-30T16:15:27.513Z,2.47
2019-01-30T16:17:35.003Z,0.83
2019-01-30T16:19:42.475Z,1.23
2019-01-30T16:21:49.695Z,1.10
2019-01-30T16:23:57.023Z,1.30
2019-01-30T16:26:04.631Z,3.87
2019-01-30T16:28:12.003Z,3.67
2019-01-30T16:30:21.688Z,9.57
2019-01-30T16:32:28.861Z,1.70
2019-01-30T16:34:36.218Z,1.83
2019-01-30T16:36:44.371Z,3.80
2019-01-30T16:38:51.925Z,8.43
2019-01-30T16:40:59.837Z,10.47
2019-01-30T16:43:08.949Z,10.77
2019-01-30T16:45:18.009Z,8.07
2019-01-30T16:47:26.670Z,5.67
2019-01-30T16:49:34.761Z,8.60
2019-01-30T16:51:42.066Z,5.43
2019-01-30T16:56:03.984Z,2.93
2019-01-30T16:58:12.571Z,4.90
2019-01-30T17:00:27.827Z,5.28
2019-01-30T17:02:35.099Z,5.77
2019-01-30T17:04:43.039Z,6.03
2019-01-30T17:06:50.893Z,10.63
2019-01-30T17:08:58.568Z,9.30
2019-01-30T17:11:06.434Z,12.77
2019-01-30T17:13:13.864Z,11.13
2019-01-30T17:15:23.201Z,15.53
2019-01-30T17:17:31.177Z,15.27
2019-01-30T17:19:39.143Z,12.07
2019-01-30T17:21:46.321Z,12.30
2019-01-30T17:23:53.843Z,12.33
2019-01-30T17:26:01.950Z,13.37
2019-01-30T17:28:09.871Z,11.30
2019-01-30T17:30:26.224Z,6.87
2019-01-30T17:32:33.600Z,9.60
2019-01-30T17:34:40.669Z,6.00
2019-01-30T17:36:48.037Z,5.57
2019-01-30T17:38:55.466Z,6.03
2019-01-30T17:41:02.868Z,7.43
2019-01-30T17:43:10.956Z,4.80
2019-01-30T17:45:19.426Z,6.87
2019-01-30T17:47:26.703Z,6.53
2019-01-30T17:49:34.748Z,6.73
2019-01-30T17:51:42.951Z,7.43
2019-01-30T17:53:59.934Z,6.13
2019-01-30T17:56:28.753Z,5.50
2019-01-30T17:58:36.151Z,5.67
2019-01-30T18:00:48.726Z,4.00
2019-01-30T18:02:56.526Z,5.37
2019-01-30T18:05:03.606Z,4.60
2019-01-30T18:07:11.654Z,3.53
2019-01-30T18:09:19.690Z,2.10
2019-01-30T18:11:26.876Z,4.40
2019-01-30T18:13:34.177Z,3.87
2019-01-30T18:15:42.785Z,2.57
2019-01-30T18:17:50.114Z,4.07
2019-01-30T18:19:57.709Z,2.90
2019-01-30T18:22:04.981Z,6.10
2019-01-30T18:24:12.774Z,4.33
2019-01-30T18:26:20.484Z,5.17
2019-01-30T18:28:28.018Z,2.33
2019-01-30T18:30:35.624Z,2.63
2019-01-30T18:32:46.366Z,1.93
2019-01-30T18:34:53.378Z,5.87
2019-01-30T18:37:00.862Z,8.87
2019-01-30T18:39:10.374Z,4.97
2019-01-30T18:41:18.270Z,4.40
2019-01-30T18:43:25.907Z,4.33
2019-01-30T18:45:33.100Z,3.43
2019-01-30T18:47:41.736Z,1.87
2019-01-30T18:49:50.810Z,3.57
2019-01-30T18:51:58.104Z,3.53
2019-01-30T18:54:06.121Z,0.83
2019-01-30T18:56:13.313Z,4.27
2019-01-30T18:58:21.162Z,2.10
2019-01-30T19:00:30.599Z,1.07
2019-01-30T19:02:38.643Z,3.27
2019-01-30T19:04:46.494Z,2.10
2019-01-30T19:06:53.942Z,2.23
2019-01-30T19:09:01.272Z,7.70
2019-01-30T19:11:09.353Z,1.80
2019-01-30T19:13:16.482Z,2.17
2019-01-30T19:15:36.213Z,2.43
2019-01-30T19:17:43.563Z,4.63
2019-01-30T19:19:51.113Z,2.03
2019-01-30T19:21:58.444Z,2.57
2019-01-30T19:24:05.607Z,1.20
2019-01-30T19:26:12.995Z,2.33
2019-01-30T19:28:20.552Z,3.10
2019-01-30T19:30:29.553Z,1.70
2019-01-30T19:32:36.968Z,1.77
2019-01-30T19:34:44.992Z,2.03
2019-01-30T19:37:02.943Z,1.53
2019-01-30T19:39:02.235Z,2.97
2019-01-30T19:41:10.266Z,3.80
2019-01-30T19:43:17.759Z,1.07
2019-01-30T19:45:26.502Z,2.20
2019-01-30T19:47:35.405Z,3.50
2019-01-30T19:49:42.500Z,1.37
2019-01-30T19:51:50.174Z,0.60
2019-01-30T19:53:57.492Z,1.10
2019-01-30T19:56:05.221Z,0.87
2019-01-30T19:58:14.189Z,1.40
2019-01-30T20:00:23.658Z,0.90
2019-01-30T20:02:30.944Z,1.67
2019-01-30T20:04:38.475Z,1.50
2019-01-30T20:06:45.610Z,1.77
2019-01-30T20:08:52.805Z,0.50
2019-01-30T20:11:00.066Z,2.17
2019-01-30T20:13:07.684Z,0.90
2019-01-30T20:15:15.279Z,0.93
2019-01-30T20:17:22.633Z,1.17
2019-01-30T20:19:29.994Z,1.50
2019-01-30T20:21:37.813Z,0.60
2019-01-30T20:23:44.862Z,1.40
2019-01-30T20:25:52.127Z,1.43
2019-01-30T20:27:59.584Z,1.23
2019-01-30T20:30:08.321Z,0.60
2019-01-30T20:32:15.790Z,0.70
2019-01-30T20:34:22.983Z,0.70
2019-01-30T20:36:30.939Z,0.30
2019-01-30T20:38:38.195Z,1.20
2019-01-30T20:40:54.053Z,1.40
2019-01-30T20:43:02.808Z,0.83
2019-01-30T20:45:11.577Z,0.50
2019-01-30T20:47:19.077Z,1.10
2019-01-30T20:49:27.150Z,1.00
2019-01-30T20:51:34.418Z,1.90
2019-01-30T20:53:48.572Z,1.03
2019-01-30T20:55:55.487Z,1.23
2019-01-30T20:58:03.309Z,1.33
2019-01-30T21:00:15.832Z,0.67
2019-01-30T21:02:23.544Z,0.50
2019-01-30T21:04:31.602Z,1.43
2019-01-30T21:06:38.928Z,1.80
2019-01-30T21:08:46.758Z,1.33
2019-01-30T21:10:53.960Z,0.70
2019-01-30T21:13:03.002Z,2.47
2019-01-30T21:15:11.197Z,0.83
2019-01-30T21:17:18.343Z,0.70
2019-01-30T21:19:25.892Z,1.33
2019-01-30T21:21:32.986Z,0.87
2019-01-30T21:23:40.343Z,0.60
2019-01-30T21:25:49.950Z,1.30
2019-01-30T21:27:57.914Z,2.10
2019-01-30T21:30:06.523Z,0.80
2019-01-30T21:32:14.435Z,5.60
2019-01-30T21:34:21.883Z,2.40
2019-01-30T21:36:29.107Z,1.40
2019-01-30T21:38:36.693Z,2.43
2019-01-30T21:40:44.438Z,0.60
2019-01-30T21:42:52.776Z,0.80
2019-01-30T21:45:00.760Z,0.73
2019-01-30T21:47:08.699Z,0.43
2019-01-30T21:49:16.101Z,0.40
2019-01-30T21:51:23.445Z,0.90
2019-01-30T21:53:32.183Z,0.50
2019-01-30T21:55:39.752Z,0.60
2019-01-30T21:57:47.594Z,2.17
2019-01-30T21:59:55.392Z,5.83
2019-01-30T22:02:08.444Z,0.87
2019-01-30T22:04:11.601Z,0.60
2019-01-30T22:06:18.975Z,16.93
2019-01-30T22:08:26.516Z,0.50
2019-01-30T22:10:34.127Z,0.60
2019-01-30T22:12:41.851Z,1.10
2019-01-30T22:14:49.176Z,0.77
2019-01-30T22:16:56.649Z,0.73
2019-01-30T22:19:04.123Z,0.77
2019-01-30T22:21:11.838Z,0.30
2019-01-30T22:23:19.447Z,1.97
2019-01-30T22:25:27.845Z,0.90
2019-01-30T22:27:35.258Z,2.23
2019-01-30T22:29:42.518Z,0.43
2019-01-30T22:31:50.012Z,0.63
2019-01-30T22:33:57.328Z,2.30
2019-01-30T22:36:18.842Z,1.17
2019-01-30T22:38:25.225Z,1.00
2019-01-30T22:40:33.685Z,1.73
2019-01-30T22:42:40.710Z,1.07
2019-01-30T22:44:48.497Z,3.63
2019-01-30T22:46:55.850Z,2.07
2019-01-30T22:49:03.123Z,0.63
2019-01-30T22:51:10.325Z,0.73
2019-01-30T22:53:17.830Z,1.73
2019-01-30T22:55:25.745Z,0.53
2019-01-30T22:57:33.035Z,1.30
2019-01-30T23:00:03.755Z,2.63
2019-01-30T23:02:14.393Z,0.53
2019-01-30T23:04:51.904Z,6.23
2019-01-30T23:07:48.428Z,1.73
2019-01-30T23:10:24.088Z,0.53
2019-01-30T23:12:45.631Z,2.87
2019-01-30T23:15:14.663Z,0.50
2019-01-30T23:18:23.149Z,0.87
2019-01-30T23:20:52.779Z,0.83
2019-01-30T23:23:39.044Z,2.00
2019-01-30T23:26:06.729Z,1.33
2019-01-30T23:28:54.619Z,1.43
2019-01-30T23:31:20.462Z,1.93
2019-01-30T23:33:47.160Z,2.47
2019-01-30T23:37:04.987Z,1.10
2019-01-30T23:39:49.943Z,2.43
2019-01-30T23:42:23.409Z,1.07
2019-01-30T23:45:22.926Z,1.00
2019-01-30T23:48:10.114Z,1.23
2019-01-30T23:50:52.860Z,2.00
2019-01-30T23:53:35.088Z,1.53
2019-01-30T23:55:55.527Z,0.47
2019-01-30T23:58:36.550Z,1.17
